Terminal Aerodrome Forecast
Issued by NWS Cleveland, OH

Home | Current Version | Previous Version | Text Only | Print | Product List | Glossary Off
Versions: 1 2 3 4 5 6 7 8 9 10 11 12 13 14 15 16 17 18 19 20 21 22 23 24

000
FTUS41 KCLE 160500
TAFCLE
TAF
KCLE 160520Z 1606/1712 33009KT P6SM SCT045 BKN060
     FM161200 15003KT P6SM SCT060
     FM161500 12006KT P6SM SCT250
     FM162000 07011KT P6SM SCT250
     FM170800 15012KT P6SM BKN250=

USA.gov is the U.S. government's official web portal to all federal, state and local government web resources and services.